createdAt,value
2017-05-13T00:04:52.551Z,1008.090
2017-05-13T00:07:46.881Z,1008.081
2017-05-13T00:10:41.626Z,1008.109
2017-05-13T00:13:36.195Z,1008.093
2017-05-13T00:16:30.729Z,1008.114
2017-05-13T00:19:25.274Z,1008.129
2017-05-13T00:22:19.893Z,1008.116
2017-05-13T00:25:14.526Z,1008.105
2017-05-13T00:28:09.142Z,1008.113
2017-05-13T00:31:03.666Z,1008.096
2017-05-13T00:33:58.089Z,1008.111
2017-05-13T00:36:52.599Z,1008.097
2017-05-13T00:39:47.111Z,1008.090
2017-05-13T00:42:41.588Z,1008.077
2017-05-13T00:45:36.079Z,1008.072
2017-05-13T00:48:30.641Z,1008.083
2017-05-13T00:51:25.166Z,1008.056
2017-05-13T00:54:19.658Z,1008.022
2017-05-13T00:57:14.122Z,1008.025
2017-05-13T01:00:08.641Z,1008.011
2017-05-13T01:03:03.103Z,1008.029
2017-05-13T01:05:57.624Z,1008.056
2017-05-13T01:08:52.087Z,1008.031
2017-05-13T01:11:46.538Z,1008.054
2017-05-13T01:14:41.026Z,1008.067
2017-05-13T01:17:35.474Z,1008.088
2017-05-13T01:20:29.997Z,1008.061
2017-05-13T01:23:24.493Z,1008.062
2017-05-13T01:26:18.937Z,1008.033
2017-05-13T01:29:13.355Z,1008.052
2017-05-13T01:32:07.933Z,1008.093
2017-05-13T01:35:02.363Z,1008.091
2017-05-13T01:37:56.920Z,1008.050
2017-05-13T01:40:51.253Z,1008.050
2017-05-13T01:43:45.655Z,1008.068
2017-05-13T01:46:40.215Z,1008.131
2017-05-13T01:49:34.562Z,1008.145
2017-05-13T01:52:28.955Z,1008.169
2017-05-13T01:55:23.472Z,1008.183
2017-05-13T01:58:17.853Z,1008.195
2017-05-13T02:01:12.354Z,1008.230
2017-05-13T02:04:06.738Z,1008.255
2017-05-13T02:07:01.234Z,1008.223
2017-05-13T02:09:55.638Z,1008.199
2017-05-13T02:12:49.926Z,1008.214
2017-05-13T02:15:44.565Z,1008.232
2017-05-13T02:18:38.963Z,1008.296
2017-05-13T02:21:33.423Z,1008.350
2017-05-13T02:24:27.832Z,1008.391
2017-05-13T02:27:22.228Z,1008.393
2017-05-13T02:30:16.683Z,1008.389
2017-05-13T02:33:11.106Z,1008.431
2017-05-13T02:36:05.453Z,1008.436
2017-05-13T02:38:59.821Z,1008.480
2017-05-13T02:41:54.262Z,1008.482
2017-05-13T02:44:48.902Z,1008.476
2017-05-13T02:47:43.253Z,1008.511
2017-05-13T02:50:37.551Z,1008.518
2017-05-13T02:53:31.979Z,1008.526
2017-05-13T02:56:26.325Z,1008.570
2017-05-13T02:59:20.709Z,1008.559
2017-05-13T03:02:15.110Z,1008.561
2017-05-13T03:05:09.477Z,1008.572
2017-05-13T03:08:03.848Z,1008.565
2017-05-13T03:10:58.310Z,1008.607
2017-05-13T03:13:52.565Z,1008.638
2017-05-13T03:16:46.990Z,1008.657
2017-05-13T03:19:41.365Z,1008.712
2017-05-13T03:22:35.745Z,1008.705
2017-05-13T03:25:30.072Z,1008.718
2017-05-13T03:28:24.509Z,1008.710
2017-05-13T03:31:18.850Z,1008.719
2017-05-13T03:34:13.221Z,1008.756
2017-05-13T03:37:07.483Z,1008.761
2017-05-13T03:40:01.802Z,1008.774
2017-05-13T03:42:56.561Z,1008.760
2017-05-13T03:45:51.558Z,1008.773
2017-05-13T03:48:45.920Z,1008.785
2017-05-13T03:51:40.295Z,1008.789
2017-05-13T03:54:34.646Z,1008.817
2017-05-13T03:57:29.052Z,1008.824
2017-05-13T04:00:23.436Z,1008.857
2017-05-13T04:06:12.067Z,1008.851
2017-05-13T04:09:06.500Z,1008.863
2017-05-13T04:12:00.877Z,1008.861
2017-05-13T04:14:55.201Z,1008.868
2017-05-13T04:17:49.606Z,1008.855
2017-05-13T04:20:43.906Z,1008.888
2017-05-13T04:23:38.355Z,1008.899
2017-05-13T04:26:32.679Z,1008.928
2017-05-13T04:29:27.131Z,1008.947
2017-05-13T04:32:21.581Z,1008.958
2017-05-13T04:35:15.913Z,1008.963
2017-05-13T04:38:10.312Z,1008.973
2017-05-13T04:41:04.648Z,1008.941
2017-05-13T04:43:58.965Z,1008.954
2017-05-13T04:46:53.445Z,1008.984
2017-05-13T04:49:47.877Z,1009.023
2017-05-13T04:52:42.191Z,1009.054
2017-05-13T04:55:36.733Z,1009.053
2017-05-13T04:58:31.032Z,1009.091
2017-05-13T05:01:25.548Z,1009.100
2017-05-13T05:04:19.914Z,1009.092
2017-05-13T05:07:14.352Z,1009.090
2017-05-13T05:10:08.704Z,1009.090
2017-05-13T05:13:03.136Z,1009.103
2017-05-13T05:15:57.368Z,1009.130
2017-05-13T05:21:46.221Z,1009.216
2017-05-13T05:24:40.648Z,1009.264
2017-05-13T05:27:35.113Z,1009.258
2017-05-13T05:30:29.569Z,1009.296
2017-05-13T05:33:23.987Z,1009.327
2017-05-13T05:36:18.471Z,1009.407
2017-05-13T05:39:12.948Z,1009.491
2017-05-13T05:42:07.274Z,1009.529
2017-05-13T05:45:01.706Z,1009.588
2017-05-13T05:47:56.100Z,1009.619
2017-05-13T05:50:50.645Z,1009.685
2017-05-13T05:53:45.014Z,1009.735
2017-05-13T05:56:39.410Z,1009.766
2017-05-13T05:59:33.886Z,1009.777
2017-05-13T06:02:28.357Z,1009.828
2017-05-13T06:05:22.791Z,1009.858
2017-05-13T06:08:17.142Z,1009.904
2017-05-13T06:11:11.587Z,1009.942
2017-05-13T06:14:05.883Z,1009.985
2017-05-13T06:19:54.813Z,1010.011
2017-05-13T06:22:49.086Z,1010.036
2017-05-13T06:25:43.533Z,1010.011
2017-05-13T06:28:37.963Z,1010.039
2017-05-13T06:31:32.301Z,1010.016
2017-05-13T06:34:26.670Z,1010.038
2017-05-13T06:37:21.196Z,1010.060
2017-05-13T06:40:15.725Z,1010.067
2017-05-13T06:43:10.116Z,1010.101
2017-05-13T06:46:04.535Z,1010.071
2017-05-13T06:48:58.993Z,1010.060
2017-05-13T06:51:53.614Z,1010.054
2017-05-13T06:54:47.985Z,1010.107
2017-05-13T06:57:42.380Z,1010.104
2017-05-13T07:03:31.477Z,1010.071
2017-05-13T07:06:25.893Z,1010.114
2017-05-13T07:09:20.333Z,1010.115
2017-05-13T07:12:14.721Z,1010.163
2017-05-13T07:15:09.195Z,1010.240
2017-05-13T07:18:03.528Z,1010.267
2017-05-13T07:20:58.152Z,1010.322
2017-05-13T07:23:52.659Z,1010.372
2017-05-13T07:26:47.115Z,1010.463
2017-05-13T07:29:41.589Z,1010.511
2017-05-13T07:35:30.610Z,1010.568
2017-05-13T07:38:25.168Z,1010.580
2017-05-13T07:41:19.711Z,1010.612
2017-05-13T07:44:14.053Z,1010.634
2017-05-13T07:47:08.542Z,1010.610
2017-05-13T07:50:03.277Z,1010.590
2017-05-13T07:52:57.789Z,1010.607
2017-05-13T07:55:52.105Z,1010.632
2017-05-13T07:58:46.490Z,1010.692
2017-05-13T08:01:41.042Z,1010.721
2017-05-13T08:04:35.756Z,1010.782
2017-05-13T08:10:24.739Z,1010.899
2017-05-13T08:13:19.198Z,1010.950
2017-05-13T08:16:13.584Z,1011.026
2017-05-13T08:19:08.052Z,1011.080
2017-05-13T08:22:02.507Z,1011.132
2017-05-13T08:24:57.039Z,1011.117
2017-05-13T08:27:51.453Z,1011.122
2017-05-13T08:30:46.008Z,1011.134
2017-05-13T08:33:40.467Z,1011.178
2017-05-13T08:36:35.046Z,1011.221
2017-05-13T08:39:29.508Z,1011.273
2017-05-13T08:42:23.988Z,1011.295
2017-05-13T08:45:18.464Z,1011.306
2017-05-13T08:48:12.901Z,1011.343
2017-05-13T08:51:07.536Z,1011.392
2017-05-13T08:54:02.146Z,1011.443
2017-05-13T08:56:56.555Z,1011.476
2017-05-13T08:59:51.059Z,1011.561
2017-05-13T09:02:45.619Z,1011.591
2017-05-13T09:05:40.184Z,1011.605
2017-05-13T09:08:34.795Z,1011.601
2017-05-13T09:11:29.281Z,1011.639
2017-05-13T09:14:23.735Z,1011.697
2017-05-13T09:17:18.267Z,1011.697
2017-05-13T09:20:12.703Z,1011.693
2017-05-13T09:23:07.418Z,1011.725
2017-05-13T09:26:01.800Z,1011.800
2017-05-13T09:28:56.271Z,1011.814
2017-05-13T09:31:50.784Z,1011.844
2017-05-13T09:34:45.241Z,1011.835
2017-05-13T09:37:39.794Z,1011.892
2017-05-13T09:40:34.230Z,1011.827
2017-05-13T09:43:28.830Z,1011.859
2017-05-13T09:46:23.412Z,1011.853
2017-05-13T09:49:17.987Z,1011.856
2017-05-13T09:52:12.397Z,1011.875
2017-05-13T09:55:07.107Z,1011.887
2017-05-13T09:58:01.563Z,1011.900
2017-05-13T10:00:56.032Z,1011.922
2017-05-13T10:03:50.490Z,1011.926
2017-05-13T10:06:45.058Z,1011.930
2017-05-13T10:09:39.561Z,1011.953
2017-05-13T10:12:34.042Z,1011.979
2017-05-13T10:15:28.855Z,1011.986
2017-05-13T10:18:23.316Z,1012.005
2017-05-13T10:21:17.975Z,1012.023
2017-05-13T10:24:12.521Z,1012.042
2017-05-13T10:27:07.112Z,1012.073
2017-05-13T10:30:01.754Z,1012.081
2017-05-13T10:32:56.151Z,1012.150
2017-05-13T10:35:50.715Z,1012.166
2017-05-13T10:38:45.142Z,1012.171
2017-05-13T10:41:39.658Z,1012.160
2017-05-13T10:44:34.269Z,1012.162
2017-05-13T10:47:28.994Z,1012.170
2017-05-13T10:53:17.999Z,1012.206
2017-05-13T10:56:12.520Z,1012.233
2017-05-13T10:59:07.136Z,1012.249
2017-05-13T11:02:01.679Z,1012.253
2017-05-13T11:04:56.183Z,1012.277
2017-05-13T11:07:50.798Z,1012.295
2017-05-13T11:10:45.269Z,1012.295
2017-05-13T11:13:39.790Z,1012.283
2017-05-13T11:16:34.310Z,1012.276
2017-05-13T11:19:28.912Z,1012.276
2017-05-13T11:22:23.309Z,1012.272
2017-05-13T11:25:17.838Z,1012.299
2017-05-13T11:28:12.564Z,1012.305
2017-05-13T11:31:07.018Z,1012.301
2017-05-13T11:34:01.743Z,1012.271
2017-05-13T11:36:56.307Z,1012.282
2017-05-13T11:39:50.789Z,1012.286
2017-05-13T11:42:45.371Z,1012.293
2017-05-13T11:45:39.895Z,1012.296
2017-05-13T11:48:34.583Z,1012.304
2017-05-13T11:51:29.092Z,1012.343
2017-05-13T11:54:23.645Z,1012.352
2017-05-13T11:57:18.420Z,1012.386
2017-05-13T12:00:13.146Z,1012.385
2017-05-13T12:03:07.775Z,1012.363
2017-05-13T12:06:02.401Z,1012.296
2017-05-13T12:08:57.204Z,1012.287
2017-05-13T12:11:51.830Z,1012.250
2017-05-13T12:14:46.300Z,1012.263
2017-05-13T12:17:40.946Z,1012.257
2017-05-13T12:20:35.657Z,1012.288
2017-05-13T12:23:30.268Z,1012.288
2017-05-13T12:26:24.880Z,1012.287
2017-05-13T12:29:19.491Z,1012.277
2017-05-13T12:32:14.195Z,1012.306
2017-05-13T12:35:08.909Z,1012.256
2017-05-13T12:38:03.581Z,1012.235
2017-05-13T12:40:58.244Z,1012.238
2017-05-13T12:43:52.794Z,1012.205
2017-05-13T12:46:47.572Z,1012.191
2017-05-13T12:52:36.871Z,1012.177
2017-05-13T12:55:31.553Z,1012.220
2017-05-13T12:58:26.239Z,1012.217
2017-05-13T13:01:21.009Z,1012.162
2017-05-13T13:07:10.533Z,1012.139
2017-05-13T13:10:05.468Z,1012.145
2017-05-13T13:15:54.951Z,1012.218
2017-05-13T13:18:49.725Z,1012.268
2017-05-13T13:21:44.480Z,1012.230
2017-05-13T13:24:39.215Z,1012.194
2017-05-13T13:27:34.020Z,1012.176
2017-05-13T13:30:28.663Z,1012.146
2017-05-13T13:33:23.374Z,1012.161
2017-05-13T13:36:18.228Z,1012.151
2017-05-13T13:39:12.952Z,1012.140
2017-05-13T13:42:07.739Z,1012.089
2017-05-13T13:45:02.605Z,1012.099
2017-05-13T13:47:57.413Z,1012.062
2017-05-13T13:50:52.086Z,1012.066
2017-05-13T13:53:47.084Z,1012.099
2017-05-13T13:56:41.892Z,1012.027
2017-05-13T13:59:36.673Z,1012.058
2017-05-13T14:02:31.347Z,1012.047
2017-05-13T14:05:26.198Z,1012.053
2017-05-13T14:08:20.975Z,1012.065
2017-05-13T14:11:15.862Z,1012.101
2017-05-13T14:14:10.549Z,1012.138
2017-05-13T14:17:05.279Z,1012.158
2017-05-13T14:20:00.070Z,1012.157
2017-05-13T14:22:53.796Z,1012.183
2017-05-13T14:25:48.504Z,1012.189
2017-05-13T14:28:43.282Z,1012.206
2017-05-13T14:31:38.200Z,1012.242
2017-05-13T14:34:33.058Z,1012.237
2017-05-13T14:37:27.794Z,1012.206
2017-05-13T14:40:22.645Z,1012.261
2017-05-13T14:43:17.323Z,1012.251
2017-05-13T14:46:12.037Z,1012.238
2017-05-13T14:49:06.780Z,1012.243
2017-05-13T14:52:01.431Z,1012.300
2017-05-13T14:54:56.163Z,1012.343
2017-05-13T14:57:50.990Z,1012.370
2017-05-13T15:00:45.761Z,1012.432
2017-05-13T15:03:40.523Z,1012.431
2017-05-13T15:06:35.061Z,1012.417
2017-05-13T15:09:29.779Z,1012.437
2017-05-13T15:12:24.486Z,1012.492
2017-05-13T15:15:19.063Z,1012.497
2017-05-13T15:18:13.802Z,1012.496
2017-05-13T15:21:08.430Z,1012.572
2017-05-13T15:24:02.982Z,1012.598
2017-05-13T15:26:57.660Z,1012.643
2017-05-13T15:29:52.351Z,1012.689
2017-05-13T15:32:46.936Z,1012.747
2017-05-13T15:35:41.560Z,1012.801
2017-05-13T15:38:36.179Z,1012.855
2017-05-13T15:41:30.991Z,1012.860
2017-05-13T15:44:25.654Z,1012.857
2017-05-13T15:47:20.356Z,1012.834
2017-05-13T15:50:15.018Z,1012.816
2017-05-13T15:53:09.658Z,1012.820
2017-05-13T15:56:04.314Z,1012.810
2017-05-13T15:58:58.995Z,1012.853
2017-05-13T16:01:53.713Z,1012.875
2017-05-13T16:04:48.320Z,1012.840
2017-05-13T16:07:42.984Z,1012.843
2017-05-13T16:10:37.593Z,1012.866
2017-05-13T16:13:32.322Z,1012.885
2017-05-13T16:16:27.042Z,1012.942
2017-05-13T16:19:21.666Z,1013.009
2017-05-13T16:22:16.445Z,1013.015
2017-05-13T16:25:11.145Z,1012.986
2017-05-13T16:28:05.690Z,1012.973
2017-05-13T16:31:00.413Z,1012.985
2017-05-13T16:39:44.559Z,1013.043
2017-05-13T16:42:39.191Z,1013.008
2017-05-13T16:45:33.961Z,1013.031
2017-05-13T16:48:28.641Z,1013.059
2017-05-13T16:51:23.133Z,1013.091
2017-05-13T16:54:17.782Z,1013.076
2017-05-13T16:57:12.506Z,1013.117
2017-05-13T17:00:07.353Z,1013.128
2017-05-13T17:03:01.957Z,1013.187
2017-05-13T17:05:56.648Z,1013.225
2017-05-13T17:08:51.298Z,1013.261
2017-05-13T17:11:45.814Z,1013.270
2017-05-13T17:14:40.530Z,1013.308
2017-05-13T17:17:35.191Z,1013.327
2017-05-13T17:20:29.804Z,1013.348
2017-05-13T17:23:24.444Z,1013.405
2017-05-13T17:26:19.004Z,1013.434
2017-05-13T17:29:13.568Z,1013.449
2017-05-13T17:32:08.235Z,1013.460
2017-05-13T17:35:02.756Z,1013.491
2017-05-13T17:37:57.337Z,1013.503
2017-05-13T17:40:51.921Z,1013.514
2017-05-13T17:43:46.595Z,1013.516
2017-05-13T17:46:41.169Z,1013.469
2017-05-13T17:49:35.742Z,1013.474
2017-05-13T17:52:30.308Z,1013.481
2017-05-13T17:55:25.080Z,1013.468
2017-05-13T17:58:19.814Z,1013.489
2017-05-13T18:01:14.482Z,1013.536
2017-05-13T18:04:09.078Z,1013.546
2017-05-13T18:07:03.660Z,1013.550
2017-05-13T18:09:58.343Z,1013.554
2017-05-13T18:12:52.851Z,1013.592
2017-05-13T18:15:47.574Z,1013.666
2017-05-13T18:18:42.167Z,1013.708
2017-05-13T18:21:36.875Z,1013.757
2017-05-13T18:24:31.405Z,1013.815
2017-05-13T18:27:26.017Z,1013.886
2017-05-13T18:30:20.671Z,1013.920
2017-05-13T18:33:15.222Z,1013.976
2017-05-13T18:36:09.869Z,1014.045
2017-05-13T18:39:04.476Z,1014.087
2017-05-13T18:41:59.117Z,1014.100
2017-05-13T18:47:48.328Z,1014.090
2017-05-13T18:50:43.443Z,1014.071
2017-05-13T18:53:38.059Z,1014.074
2017-05-13T18:56:32.554Z,1014.126
2017-05-13T18:59:27.220Z,1014.269
2017-05-13T19:02:21.904Z,1014.353
2017-05-13T19:05:16.638Z,1014.389
2017-05-13T19:08:11.221Z,1014.421
2017-05-13T19:11:05.757Z,1014.451
2017-05-13T19:14:00.338Z,1014.466
2017-05-13T19:16:54.879Z,1014.509
2017-05-13T19:19:49.352Z,1014.503
2017-05-13T19:22:43.951Z,1014.558
2017-05-13T19:25:38.612Z,1014.569
2017-05-13T19:28:33.187Z,1014.544
2017-05-13T19:31:27.770Z,1014.548
2017-05-13T19:34:22.363Z,1014.548
2017-05-13T19:37:16.997Z,1014.503
2017-05-13T19:40:11.551Z,1014.478
2017-05-13T19:43:06.027Z,1014.484
2017-05-13T19:46:00.628Z,1014.545
2017-05-13T19:48:55.178Z,1014.592
2017-05-13T19:51:49.704Z,1014.599
2017-05-13T19:54:44.267Z,1014.584
2017-05-13T19:57:38.813Z,1014.596
2017-05-13T20:00:33.231Z,1014.624
2017-05-13T20:03:27.966Z,1014.680
2017-05-13T20:06:22.391Z,1014.712
2017-05-13T20:12:11.396Z,1014.798
2017-05-13T20:18:00.422Z,1014.848
2017-05-13T20:23:49.747Z,1014.926
2017-05-13T20:26:44.212Z,1014.921
2017-05-13T20:29:38.716Z,1014.939
2017-05-13T20:32:33.126Z,1014.951
2017-05-13T20:38:22.118Z,1014.964
2017-05-13T20:41:16.562Z,1015.004
2017-05-13T20:44:10.959Z,1015.020
2017-05-13T20:47:05.443Z,1015.021
2017-05-13T20:52:54.384Z,1014.999
2017-05-13T20:55:48.876Z,1015.024
2017-05-13T20:58:43.349Z,1015.080
2017-05-13T21:01:37.808Z,1015.133
2017-05-13T21:07:26.812Z,1015.240
2017-05-13T21:10:21.295Z,1015.267
2017-05-13T21:13:15.757Z,1015.249
2017-05-13T21:16:10.200Z,1015.239
2017-05-13T21:19:04.586Z,1015.249
2017-05-13T21:21:59.093Z,1015.241
2017-05-13T21:27:47.921Z,1015.241
2017-05-13T21:30:42.266Z,1015.259
2017-05-13T21:33:36.733Z,1015.305
2017-05-13T21:36:31.118Z,1015.357
2017-05-13T21:39:25.577Z,1015.374
2017-05-13T21:42:20.057Z,1015.350
2017-05-13T21:45:14.556Z,1015.344
2017-05-13T21:48:09.109Z,1015.385
2017-05-13T21:51:03.548Z,1015.406
2017-05-13T21:53:57.930Z,1015.442
2017-05-13T21:56:52.498Z,1015.458
2017-05-13T21:59:46.799Z,1015.506
2017-05-13T22:02:41.263Z,1015.522
2017-05-13T22:05:35.753Z,1015.593
2017-05-13T22:08:30.126Z,1015.619
2017-05-13T22:11:24.518Z,1015.655
2017-05-13T22:14:18.915Z,1015.681
2017-05-13T22:17:13.328Z,1015.680
2017-05-13T22:20:07.780Z,1015.717
2017-05-13T22:23:02.194Z,1015.751
2017-05-13T22:25:56.728Z,1015.747
2017-05-13T22:28:51.101Z,1015.763
2017-05-13T22:31:45.620Z,1015.742
2017-05-13T22:34:40.168Z,1015.751
2017-05-13T22:37:34.484Z,1015.773
2017-05-13T22:40:28.869Z,1015.827
2017-05-13T22:43:23.307Z,1015.815
2017-05-13T22:46:17.693Z,1015.822
2017-05-13T22:49:12.077Z,1015.798
2017-05-13T22:52:06.490Z,1015.802
2017-05-13T22:55:00.863Z,1015.828
2017-05-13T22:57:55.261Z,1015.849
2017-05-13T23:00:49.681Z,1015.933
2017-05-13T23:06:39.099Z,1015.951
2017-05-13T23:09:33.418Z,1015.934
2017-05-13T23:12:27.834Z,1015.961
2017-05-13T23:15:22.137Z,1015.912
2017-05-13T23:21:10.828Z,1015.868
2017-05-13T23:24:05.210Z,1015.882
2017-05-13T23:26:59.633Z,1015.912
2017-05-13T23:29:54.084Z,1015.934
2017-05-13T23:32:48.633Z,1015.948
2017-05-13T23:35:42.934Z,1015.926
2017-05-13T23:38:37.291Z,1015.942
2017-05-13T23:41:31.847Z,1015.975
2017-05-13T23:44:26.341Z,1015.963
2017-05-13T23:47:20.780Z,1015.969
2017-05-13T23:50:15.235Z,1016.022
2017-05-13T23:53:09.684Z,1016.018
2017-05-13T23:56:04.117Z,1016.044
2017-05-13T23:58:58.719Z,1016.072
